sensor_id;sensor_type;location;lat;lon;timestamp;pressure;altitude;pressure_sealevel;temperature;humidity
66486;BME280;53303;47.476;8.084;2022-07-24T00:00:04;96839.31;;;23.78;52.41
66486;BME280;53303;47.476;8.084;2022-07-24T00:02:32;96830.41;;;23.74;52.57
66486;BME280;53303;47.476;8.084;2022-07-24T00:05:00;96862.94;;;23.88;52.58
66486;BME280;53303;47.476;8.084;2022-07-24T00:07:27;96866.50;;;23.89;52.61
66486;BME280;53303;47.476;8.084;2022-07-24T00:09:53;96855.34;;;23.89;52.48
66486;BME280;53303;47.476;8.084;2022-07-24T00:12:21;96840.59;;;23.83;52.52
66486;BME280;53303;47.476;8.084;2022-07-24T00:14:48;96837.56;;;23.81;52.39
66486;BME280;53303;47.476;8.084;2022-07-24T00:17:15;96836.22;;;23.76;52.60
66486;BME280;53303;47.476;8.084;2022-07-24T00:19:40;96838.31;;;23.81;52.54
66486;BME280;53303;47.476;8.084;2022-07-24T00:22:05;96830.66;;;23.76;52.52
66486;BME280;53303;47.476;8.084;2022-07-24T00:24:33;96846.13;;;23.77;52.48
66486;BME280;53303;47.476;8.084;2022-07-24T00:26:58;96863.44;;;23.87;52.46
66486;BME280;53303;47.476;8.084;2022-07-24T00:29:26;96839.00;;;23.76;52.29
66486;BME280;53303;47.476;8.084;2022-07-24T00:31:54;96851.53;;;23.86;52.31
66486;BME280;53303;47.476;8.084;2022-07-24T00:34:22;96845.19;;;23.86;52.56
66486;BME280;53303;47.476;8.084;2022-07-24T00:36:50;96847.72;;;23.84;52.50
66486;BME280;53303;47.476;8.084;2022-07-24T00:39:16;96847.47;;;23.82;52.52
66486;BME280;53303;47.476;8.084;2022-07-24T00:41:46;96852.31;;;23.87;52.55
66486;BME280;53303;47.476;8.084;2022-07-24T00:44:14;96838.53;;;23.77;52.43
66486;BME280;53303;47.476;8.084;2022-07-24T00:46:42;96845.44;;;23.82;52.49
66486;BME280;53303;47.476;8.084;2022-07-24T00:49:11;96848.47;;;23.84;52.18
66486;BME280;53303;47.476;8.084;2022-07-24T00:51:37;96845.19;;;23.86;52.37
66486;BME280;53303;47.476;8.084;2022-07-24T00:54:06;96849.53;;;23.87;52.35
66486;BME280;53303;47.476;8.084;2022-07-24T00:56:32;96845.94;;;23.86;52.37
66486;BME280;53303;47.476;8.084;2022-07-24T00:59:01;96835.03;;;23.83;52.38
66486;BME280;53303;47.476;8.084;2022-07-24T01:01:30;96845.69;;;23.84;52.34
66486;BME280;53303;47.476;8.084;2022-07-24T01:03:56;96836.81;;;23.80;52.27
66486;BME280;53303;47.476;8.084;2022-07-24T01:06:23;96838.59;;;23.83;52.24
66486;BME280;53303;47.476;8.084;2022-07-24T01:08:51;96844.19;;;23.83;52.49
66486;BME280;53303;47.476;8.084;2022-07-24T01:11:20;96837.31;;;23.84;52.32
66486;BME280;53303;47.476;8.084;2022-07-24T01:13:49;96829.91;;;23.75;52.20
66486;BME280;53303;47.476;8.084;2022-07-24T01:16:15;96844.94;;;23.84;52.07
66486;BME280;53303;47.476;8.084;2022-07-24T01:18:41;96844.94;;;23.84;52.20
66486;BME280;53303;47.476;8.084;2022-07-24T01:21:07;96828.88;;;23.73;52.18
66486;BME280;53303;47.476;8.084;2022-07-24T01:23:33;96845.44;;;23.82;52.35
66486;BME280;53303;47.476;8.084;2022-07-24T01:26:01;96845.16;;;23.80;52.27
66486;BME280;53303;47.476;8.084;2022-07-24T01:28:30;96834.47;;;23.73;52.47
66486;BME280;53303;47.476;8.084;2022-07-24T01:30:55;96831.69;;;23.73;52.24
66486;BME280;53303;47.476;8.084;2022-07-24T01:33:21;96833.97;;;23.74;52.24
66486;BME280;53303;47.476;8.084;2022-07-24T01:35:47;96845.91;;;23.81;52.26
66486;BME280;53303;47.476;8.084;2022-07-24T01:38:16;96847.94;;;23.80;52.09
66486;BME280;53303;47.476;8.084;2022-07-24T01:40:41;96835.97;;;23.74;52.24
66486;BME280;53303;47.476;8.084;2022-07-24T01:43:07;96831.69;;;23.73;52.34
66486;BME280;53303;47.476;8.084;2022-07-24T01:45:33;96842.09;;;23.78;52.05
66486;BME280;53303;47.476;8.084;2022-07-24T01:48:01;96835.72;;;23.72;52.14
66486;BME280;53303;47.476;8.084;2022-07-24T01:50:27;96849.41;;;23.75;52.26
66486;BME280;53303;47.476;8.084;2022-07-24T01:52:52;96819.47;;;23.65;52.14
66486;BME280;53303;47.476;8.084;2022-07-24T01:55:21;96832.16;;;23.71;52.19
66486;BME280;53303;47.476;8.084;2022-07-24T01:57:49;96834.19;;;23.71;52.27
66486;BME280;53303;47.476;8.084;2022-07-24T02:00:16;96841.81;;;23.76;52.35
66486;BME280;53303;47.476;8.084;2022-07-24T02:02:42;96835.47;;;23.75;52.28
66486;BME280;53303;47.476;8.084;2022-07-24T02:05:10;96840.28;;;23.75;52.42
66486;BME280;53303;47.476;8.084;2022-07-24T02:07:40;96829.88;;;23.70;52.29
66486;BME280;53303;47.476;8.084;2022-07-24T02:10:11;96834.47;;;23.73;52.38
66486;BME280;53303;47.476;8.084;2022-07-24T02:12:36;96829.16;;;23.75;52.41
66486;BME280;53303;47.476;8.084;2022-07-24T02:15:10;96824.31;;;23.70;52.48
66486;BME280;53303;47.476;8.084;2022-07-24T02:17:35;96825.59;;;23.74;52.34
66486;BME280;53303;47.476;8.084;2022-07-24T02:20:01;96819.47;;;23.70;52.60
66486;BME280;53303;47.476;8.084;2022-07-24T02:22:28;96823.28;;;23.67;52.79
66486;BME280;53303;47.476;8.084;2022-07-24T02:24:54;96814.94;;;23.67;52.44
66486;BME280;53303;47.476;8.084;2022-07-24T02:27:22;96816.19;;;23.66;52.62
66486;BME280;53303;47.476;8.084;2022-07-24T02:29:47;96819.00;;;23.72;52.40
66486;BME280;53303;47.476;8.084;2022-07-24T02:32:15;96820.53;;;23.73;52.39
66486;BME280;53303;47.476;8.084;2022-07-24T02:34:41;96813.16;;;23.70;52.38
66486;BME280;53303;47.476;8.084;2022-07-24T02:37:06;96822.03;;;23.74;52.18
66486;BME280;53303;47.476;8.084;2022-07-24T02:39:31;96809.59;;;23.64;52.05
66486;BME280;53303;47.476;8.084;2022-07-24T02:41:57;96812.16;;;23.67;52.31
66486;BME280;53303;47.476;8.084;2022-07-24T02:44:25;96826.84;;;23.73;52.21
66486;BME280;53303;47.476;8.084;2022-07-24T02:46:51;96826.09;;;23.73;52.22
66486;BME280;53303;47.476;8.084;2022-07-24T02:49:16;96830.91;;;23.72;52.19
66486;BME280;53303;47.476;8.084;2022-07-24T02:51:41;96828.88;;;23.73;51.96
66486;BME280;53303;47.476;8.084;2022-07-24T02:54:10;96833.41;;;23.70;52.08
66486;BME280;53303;47.476;8.084;2022-07-24T02:56:35;96829.88;;;23.70;52.09
66486;BME280;53303;47.476;8.084;2022-07-24T02:59:02;96833.69;;;23.72;52.08
66486;BME280;53303;47.476;8.084;2022-07-24T03:01:27;96830.91;;;23.72;52.08
66486;BME280;53303;47.476;8.084;2022-07-24T03:03:55;96824.28;;;23.64;51.62
66486;BME280;53303;47.476;8.084;2022-07-24T03:06:20;96814.38;;;23.63;51.74
66486;BME280;53303;47.476;8.084;2022-07-24T03:08:48;96830.13;;;23.72;51.60
66486;BME280;53303;47.476;8.084;2022-07-24T03:11:14;96830.91;;;23.72;51.78
66486;BME280;53303;47.476;8.084;2022-07-24T03:13:39;96825.28;;;23.67;52.05
66486;BME280;53303;47.476;8.084;2022-07-24T03:16:05;96821.75;;;23.66;51.87
66486;BME280;53303;47.476;8.084;2022-07-24T03:18:35;96817.44;;;23.65;52.01
66486;BME280;53303;47.476;8.084;2022-07-24T03:21:01;96826.34;;;23.69;52.05
66486;BME280;53303;47.476;8.084;2022-07-24T03:23:26;96835.19;;;23.68;51.88
66486;BME280;53303;47.476;8.084;2022-07-24T03:25:52;96818.19;;;23.60;52.08
66486;BME280;53303;47.476;8.084;2022-07-24T03:28:23;96836.69;;;23.69;51.86
66486;BME280;53303;47.476;8.084;2022-07-24T03:30:48;96818.69;;;23.59;51.97
66486;BME280;53303;47.476;8.084;2022-07-24T03:33:13;96833.88;;;23.63;51.96
66486;BME280;53303;47.476;8.084;2022-07-24T03:35:41;96834.38;;;23.62;51.79
66486;BME280;53303;47.476;8.084;2022-07-24T03:38:07;96841.00;;;23.64;51.87
66486;BME280;53303;47.476;8.084;2022-07-24T03:40:32;96834.13;;;23.60;51.97
66486;BME280;53303;47.476;8.084;2022-07-24T03:43:00;96844.28;;;23.63;52.01
66486;BME280;53303;47.476;8.084;2022-07-24T03:45:25;96838.16;;;23.53;51.94
66486;BME280;53303;47.476;8.084;2022-07-24T03:47:50;96833.81;;;23.52;52.15
66486;BME280;53303;47.476;8.084;2022-07-24T03:50:16;96838.41;;;23.55;51.83
66486;BME280;53303;47.476;8.084;2022-07-24T03:52:42;96855.41;;;23.63;51.97
66486;BME280;53303;47.476;8.084;2022-07-24T03:55:08;96849.84;;;23.63;51.87
66486;BME280;53303;47.476;8.084;2022-07-24T03:57:33;96849.09;;;23.62;52.05
66486;BME280;53303;47.476;8.084;2022-07-24T03:59:59;96836.63;;;23.52;51.82
66486;BME280;53303;47.476;8.084;2022-07-24T04:02:24;96844.75;;;23.55;51.72
66486;BME280;53303;47.476;8.084;2022-07-24T04:04:49;96852.13;;;23.59;51.85
66486;BME280;53303;47.476;8.084;2022-07-24T04:07:15;96856.41;;;23.60;51.75
66486;BME280;53303;47.476;8.084;2022-07-24T04:09:40;96848.50;;;23.52;51.86
66486;BME280;53303;47.476;8.084;2022-07-24T04:12:06;96858.94;;;23.57;51.77
66486;BME280;53303;47.476;8.084;2022-07-24T04:14:34;96844.94;;;23.46;51.78
66486;BME280;53303;47.476;8.084;2022-07-24T04:16:59;96855.34;;;23.51;51.82
66486;BME280;53303;47.476;8.084;2022-07-24T04:19:25;96857.13;;;23.54;51.98
66486;BME280;53303;47.476;8.084;2022-07-24T04:21:50;96844.69;;;23.44;51.91
66486;BME280;53303;47.476;8.084;2022-07-24T04:24:16;96865.50;;;23.54;51.86
66486;BME280;53303;47.476;8.084;2022-07-24T04:26:41;96843.66;;;23.47;51.81
66486;BME280;53303;47.476;8.084;2022-07-24T04:29:06;96853.06;;;23.50;51.90
66486;BME280;53303;47.476;8.084;2022-07-24T04:31:32;96845.69;;;23.47;51.99
66486;BME280;53303;47.476;8.084;2022-07-24T04:34:02;96850.25;;;23.44;52.14
66486;BME280;53303;47.476;8.084;2022-07-24T04:36:28;96840.09;;;23.41;51.96
66486;BME280;53303;47.476;8.084;2022-07-24T04:38:56;96850.25;;;23.44;52.24
66486;BME280;53303;47.476;8.084;2022-07-24T04:41:23;96858.63;;;23.50;52.14
66486;BME280;53303;47.476;8.084;2022-07-24T04:43:49;96863.72;;;23.51;52.09
66486;BME280;53303;47.476;8.084;2022-07-24T04:46:18;96862.19;;;23.50;52.28
66486;BME280;53303;47.476;8.084;2022-07-24T04:48:43;96863.72;;;23.51;52.41
66486;BME280;53303;47.476;8.084;2022-07-24T04:51:09;96862.19;;;23.50;52.26
66486;BME280;53303;47.476;8.084;2022-07-24T04:53:34;96856.56;;;23.45;52.50
66486;BME280;53303;47.476;8.084;2022-07-24T04:56:02;96857.34;;;23.45;52.46
66486;BME280;53303;47.476;8.084;2022-07-24T04:58:30;96856.56;;;23.45;52.50
66486;BME280;53303;47.476;8.084;2022-07-24T05:00:56;96870.03;;;23.52;52.53
66486;BME280;53303;47.476;8.084;2022-07-24T05:03:21;96866.22;;;23.49;52.59
66486;BME280;53303;47.476;8.084;2022-07-24T05:05:46;96864.72;;;23.48;52.58
66486;BME280;53303;47.476;8.084;2022-07-24T05:08:12;96834.16;;;23.28;52.69
66486;BME280;53303;47.476;8.084;2022-07-24T05:10:37;96866.22;;;23.49;52.91
66486;BME280;53303;47.476;8.084;2022-07-24T05:13:03;96852.75;;;23.42;52.64
66486;BME280;53303;47.476;8.084;2022-07-24T05:15:28;96859.38;;;23.45;52.92
66486;BME280;53303;47.476;8.084;2022-07-24T05:17:54;96865.50;;;23.54;52.80
66486;BME280;53303;47.476;8.084;2022-07-24T05:20:19;96865.72;;;23.51;52.81
66486;BME280;53303;47.476;8.084;2022-07-24T05:22:44;96854.53;;;23.45;52.91
66486;BME280;53303;47.476;8.084;2022-07-24T05:25:10;96874.13;;;23.56;53.13
66486;BME280;53303;47.476;8.084;2022-07-24T05:27:39;96868.56;;;23.56;53.00
66486;BME280;53303;47.476;8.084;2022-07-24T05:30:05;96864.50;;;23.57;53.06
66486;BME280;53303;47.476;8.084;2022-07-24T05:32:35;96862.19;;;23.50;53.23
66486;BME280;53303;47.476;8.084;2022-07-24T05:35:01;96862.44;;;23.52;53.35
66486;BME280;53303;47.476;8.084;2022-07-24T05:37:26;96861.44;;;23.50;53.36
66486;BME280;53303;47.476;8.084;2022-07-24T05:39:54;96865.72;;;23.51;53.59
66486;BME280;53303;47.476;8.084;2022-07-24T05:42:22;96867.03;;;23.55;53.38
66486;BME280;53303;47.476;8.084;2022-07-24T05:44:47;96845.44;;;23.45;53.52
66486;BME280;53303;47.476;8.084;2022-07-24T05:47:12;96869.59;;;23.59;53.80
66486;BME280;53303;47.476;8.084;2022-07-24T05:49:38;96864.28;;;23.61;53.84
66486;BME280;53303;47.476;8.084;2022-07-24T05:52:03;96859.50;;;23.67;53.78
66486;BME280;53303;47.476;8.084;2022-07-24T05:54:29;96865.84;;;23.68;54.17
66486;BME280;53303;47.476;8.084;2022-07-24T05:56:58;96853.66;;;23.65;54.25
66486;BME280;53303;47.476;8.084;2022-07-24T05:59:25;96856.44;;;23.65;54.14
66486;BME280;53303;47.476;8.084;2022-07-24T06:01:51;96842.75;;;23.62;54.17
66486;BME280;53303;47.476;8.084;2022-07-24T06:04:16;96860.28;;;23.73;53.88
66486;BME280;53303;47.476;8.084;2022-07-24T06:06:41;96861.28;;;23.70;53.84
66486;BME280;53303;47.476;8.084;2022-07-24T06:09:07;96855.94;;;23.67;54.04
66486;BME280;53303;47.476;8.084;2022-07-24T06:11:32;96864.63;;;23.74;54.07
66486;BME280;53303;47.476;8.084;2022-07-24T06:13:58;96867.47;;;23.80;53.97
66486;BME280;53303;47.476;8.084;2022-07-24T06:16:26;96870.50;;;23.82;53.71
66486;BME280;53303;47.476;8.084;2022-07-24T06:18:54;96850.69;;;23.74;53.84
66486;BME280;53303;47.476;8.084;2022-07-24T06:21:19;96865.47;;;23.86;53.58
66486;BME280;53303;47.476;8.084;2022-07-24T06:23:45;96868.75;;;23.85;53.57
66486;BME280;53303;47.476;8.084;2022-07-24T06:26:10;96872.84;;;23.89;53.48
66486;BME280;53303;47.476;8.084;2022-07-24T06:28:36;96866.75;;;23.85;53.52
66486;BME280;53303;47.476;8.084;2022-07-24T06:31:01;96865.94;;;23.85;53.30
66486;BME280;53303;47.476;8.084;2022-07-24T06:33:29;96868.56;;;23.94;53.40
66486;BME280;53303;47.476;8.084;2022-07-24T06:35:55;96874.88;;;23.94;53.32
66486;BME280;53303;47.476;8.084;2022-07-24T06:38:25;96869.56;;;23.97;53.32
66486;BME280;53303;47.476;8.084;2022-07-24T06:40:50;96864.50;;;23.95;53.46
66486;BME280;53303;47.476;8.084;2022-07-24T06:43:16;96863.75;;;23.94;53.01
66486;BME280;53303;47.476;8.084;2022-07-24T06:45:43;96866.03;;;23.96;53.03
66486;BME280;53303;47.476;8.084;2022-07-24T06:48:09;96833.81;;;23.89;53.92
66486;BME280;53303;47.476;8.084;2022-07-24T06:50:34;96828.44;;;23.80;53.21
66486;BME280;53303;47.476;8.084;2022-07-24T06:53:03;96841.81;;;23.76;50.47
66486;BME280;53303;47.476;8.084;2022-07-24T06:55:28;96840.97;;;23.59;47.30
66486;BME280;53303;47.476;8.084;2022-07-24T06:57:54;96841.66;;;23.48;45.98
66486;BME280;53303;47.476;8.084;2022-07-24T07:00:19;96846.91;;;23.40;45.30
66486;BME280;53303;47.476;8.084;2022-07-24T07:02:45;96835.94;;;23.25;44.96
66486;BME280;53303;47.476;8.084;2022-07-24T07:05:13;96842.47;;;23.22;45.00
66486;BME280;53303;47.476;8.084;2022-07-24T07:07:38;96837.31;;;23.09;44.93
66486;BME280;53303;47.476;8.084;2022-07-24T07:10:05;96839.84;;;23.07;45.05
66486;BME280;53303;47.476;8.084;2022-07-24T07:12:34;96826.03;;;22.92;45.17
66486;BME280;53303;47.476;8.084;2022-07-24T07:14:59;96835.16;;;22.93;45.12
66486;BME280;53303;47.476;8.084;2022-07-24T07:17:25;96828.00;;;22.86;45.04
66486;BME280;53303;47.476;8.084;2022-07-24T07:19:55;96836.09;;;22.84;45.06
66486;BME280;53303;47.476;8.084;2022-07-24T07:22:20;96826.38;;;22.74;44.87
66486;BME280;53303;47.476;8.084;2022-07-24T07:24:46;96826.91;;;22.78;44.85
66486;BME280;53303;47.476;8.084;2022-07-24T07:27:14;96830.97;;;22.77;44.75
66486;BME280;53303;47.476;8.084;2022-07-24T07:29:39;96831.94;;;22.74;44.59
66486;BME280;53303;47.476;8.084;2022-07-24T07:32:05;96818.41;;;22.61;44.61
66486;BME280;53303;47.476;8.084;2022-07-24T07:34:30;96810.03;;;22.55;44.68
66486;BME280;53303;47.476;8.084;2022-07-24T07:36:55;96815.84;;;22.57;44.54
66486;BME280;53303;47.476;8.084;2022-07-24T07:39:24;96830.78;;;22.60;44.53
66486;BME280;53303;47.476;8.084;2022-07-24T07:41:52;96827.72;;;22.58;44.70
66486;BME280;53303;47.476;8.084;2022-07-24T07:44:17;96823.16;;;22.55;44.72
66486;BME280;53303;47.476;8.084;2022-07-24T07:46:42;96820.56;;;22.51;44.91
66486;BME280;53303;47.476;8.084;2022-07-24T07:49:08;96832.00;;;22.53;44.83
66486;BME280;53303;47.476;8.084;2022-07-24T07:51:34;96799.19;;;22.37;44.76
66486;BME280;53303;47.476;8.084;2022-07-24T07:53:59;96805.53;;;22.37;44.82
66486;BME280;53303;47.476;8.084;2022-07-24T07:56:25;96821.81;;;22.45;44.93
66486;BME280;53303;47.476;8.084;2022-07-24T07:58:53;96819.22;;;22.41;44.97
66486;BME280;53303;47.476;8.084;2022-07-24T08:01:18;96828.34;;;22.41;44.96
66486;BME280;53303;47.476;8.084;2022-07-24T08:03:43;96816.25;;;22.45;44.95
66486;BME280;53303;47.476;8.084;2022-07-24T08:06:11;96815.41;;;22.38;44.91
66486;BME280;53303;47.476;8.084;2022-07-24T08:08:36;96805.50;;;22.32;44.96
66486;BME280;53303;47.476;8.084;2022-07-24T08:11:02;96820.75;;;22.42;45.09
66486;BME280;53303;47.476;8.084;2022-07-24T08:13:27;96817.97;;;22.42;44.94
66486;BME280;53303;47.476;8.084;2022-07-24T08:15:53;96809.84;;;22.38;44.90
66486;BME280;53303;47.476;8.084;2022-07-24T08:18:18;96801.44;;;22.33;44.70
66486;BME280;53303;47.476;8.084;2022-07-24T08:20:44;96808.53;;;22.34;44.86
66486;BME280;53303;47.476;8.084;2022-07-24T08:23:11;96812.63;;;22.38;45.34
66486;BME280;53303;47.476;8.084;2022-07-24T08:25:37;96811.88;;;22.38;45.13
66486;BME280;53303;47.476;8.084;2022-07-24T08:28:03;96806.31;;;22.38;45.12
66486;BME280;53303;47.476;8.084;2022-07-24T08:30:28;96799.97;;;22.37;44.99
66486;BME280;53303;47.476;8.084;2022-07-24T08:32:54;96798.72;;;22.38;44.99
66486;BME280;53303;47.476;8.084;2022-07-24T08:35:19;96800.75;;;22.38;45.00
66486;BME280;53303;47.476;8.084;2022-07-24T08:37:46;96807.84;;;22.39;44.83
66486;BME280;53303;47.476;8.084;2022-07-24T08:40:12;96794.69;;;22.39;45.18
66486;BME280;53303;47.476;8.084;2022-07-24T08:42:38;96786.34;;;22.39;45.02
66486;BME280;53303;47.476;8.084;2022-07-24T08:45:05;96786.63;;;22.41;45.03
66486;BME280;53303;47.476;8.084;2022-07-24T08:47:33;96792.94;;;22.42;44.97
66486;BME280;53303;47.476;8.084;2022-07-24T08:49:59;96782.25;;;22.35;44.99
66486;BME280;53303;47.476;8.084;2022-07-24T08:52:25;96785.28;;;22.37;45.03
66486;BME280;53303;47.476;8.084;2022-07-24T08:54:52;96770.31;;;22.29;45.08
66486;BME280;53303;47.476;8.084;2022-07-24T08:57:20;96791.97;;;22.45;45.11
66486;BME280;53303;47.476;8.084;2022-07-24T08:59:45;96782.03;;;22.38;45.03
66486;BME280;53303;47.476;8.084;2022-07-24T09:02:11;96786.66;;;22.47;45.29
66486;BME280;53303;47.476;8.084;2022-07-24T09:04:44;96779.50;;;22.40;45.35
66486;BME280;53303;47.476;8.084;2022-07-24T09:07:16;96790.50;;;22.50;45.17
66486;BME280;53303;47.476;8.084;2022-07-24T09:09:57;96795.00;;;22.47;45.36
66486;BME280;53303;47.476;8.084;2022-07-24T09:12:23;96782.06;;;22.44;45.29
66486;BME280;53303;47.476;8.084;2022-07-24T09:14:49;96792.53;;;22.55;45.34
66486;BME280;53303;47.476;8.084;2022-07-24T09:17:16;96792.84;;;22.57;45.18
66486;BME280;53303;47.476;8.084;2022-07-24T09:20:00;96772.28;;;22.49;45.20
66486;BME280;53303;47.476;8.084;2022-07-24T09:22:40;96774.06;;;22.52;45.17
66486;BME280;53303;47.476;8.084;2022-07-24T09:25:11;96782.25;;;22.61;45.07
66486;BME280;53303;47.476;8.084;2022-07-24T09:33:06;96780.78;;;22.66;45.23
66486;BME280;53303;47.476;8.084;2022-07-24T09:37:58;96774.69;;;22.67;45.09
66486;BME280;53303;47.476;8.084;2022-07-24T09:40:44;96777.78;;;22.69;45.24
66486;BME280;53303;47.476;8.084;2022-07-24T09:45:51;96783.38;;;22.75;45.14
66486;BME280;53303;47.476;8.084;2022-07-24T09:48:20;96765.41;;;22.76;45.34
66486;BME280;53303;47.476;8.084;2022-07-24T09:50:51;96764.44;;;22.79;45.33
66486;BME280;53303;47.476;8.084;2022-07-24T09:53:21;96766.25;;;22.82;45.14
66486;BME280;53303;47.476;8.084;2022-07-24T09:56:01;96757.56;;;22.74;45.29
66486;BME280;53303;47.476;8.084;2022-07-24T09:58:29;96743.13;;;22.70;45.21
66486;BME280;53303;47.476;8.084;2022-07-24T10:00:58;96751.53;;;22.81;45.13
66486;BME280;53303;47.476;8.084;2022-07-24T10:03:30;96758.94;;;22.90;45.07
66486;BME280;53303;47.476;8.084;2022-07-24T10:06:01;96745.75;;;22.85;45.26
66486;BME280;53303;47.476;8.084;2022-07-24T10:08:30;96761.78;;;22.96;45.41
66486;BME280;53303;47.476;8.084;2022-07-24T10:11:01;96760.53;;;22.97;44.93
66486;BME280;53303;47.476;8.084;2022-07-24T10:13:27;96748.91;;;22.98;44.86
66486;BME280;53303;47.476;8.084;2022-07-24T10:18:59;96742.75;;;22.89;44.98
66486;BME280;53303;47.476;8.084;2022-07-24T10:21:35;96733.41;;;22.92;44.89
66486;BME280;53303;47.476;8.084;2022-07-24T10:26:33;96749.72;;;23.05;44.77
66486;BME280;53303;47.476;8.084;2022-07-24T10:29:07;96737.50;;;22.96;44.82
66486;BME280;53303;47.476;8.084;2022-07-24T10:31:39;96727.34;;;22.93;44.83
66486;BME280;53303;47.476;8.084;2022-07-24T10:42:17;96736.28;;;23.03;44.64
66486;BME280;53303;47.476;8.084;2022-07-24T10:44:42;96735.00;;;23.04;44.62
66486;BME280;53303;47.476;8.084;2022-07-24T10:47:11;96724.66;;;23.05;44.67
66486;BME280;53303;47.476;8.084;2022-07-24T10:49:42;96731.75;;;23.06;44.63
66486;BME280;53303;47.476;8.084;2022-07-24T10:52:21;96721.81;;;22.99;44.54
66486;BME280;53303;47.476;8.084;2022-07-24T10:54:47;96722.91;;;23.07;44.51
66486;BME280;53303;47.476;8.084;2022-07-24T10:57:13;96726.47;;;23.08;44.46
66486;BME280;53303;47.476;8.084;2022-07-24T10:59:39;96720.13;;;23.07;44.54
66486;BME280;53303;47.476;8.084;2022-07-24T11:05:27;96719.59;;;23.03;44.41
66486;BME280;53303;47.476;8.084;2022-07-24T11:10:48;96701.34;;;23.02;44.41
66486;BME280;53303;47.476;8.084;2022-07-24T11:27:08;96702.22;;;23.14;44.29
66486;BME280;53303;47.476;8.084;2022-07-24T11:29:41;96694.66;;;23.20;44.09
66486;BME280;53303;47.476;8.084;2022-07-24T11:32:12;96693.66;;;23.23;43.99
66486;BME280;53303;47.476;8.084;2022-07-24T11:34:43;96677.69;;;23.18;44.32
66486;BME280;53303;47.476;8.084;2022-07-24T11:37:09;96675.91;;;23.21;44.16
66486;BME280;53303;47.476;8.084;2022-07-24T11:39:41;96682.53;;;23.29;44.01
66486;BME280;53303;47.476;8.084;2022-07-24T11:42:09;96675.44;;;23.28;43.95
66486;BME280;53303;47.476;8.084;2022-07-24T11:44:42;96678.75;;;23.32;43.93
66486;BME280;53303;47.476;8.084;2022-07-24T11:47:14;96679.03;;;23.34;43.80
66486;BME280;53303;47.476;8.084;2022-07-24T11:49:52;96679.50;;;23.32;43.74
66486;BME280;53303;47.476;8.084;2022-07-24T11:52:30;96665.34;;;23.30;43.61
66486;BME280;53303;47.476;8.084;2022-07-24T11:54:59;96666.88;;;23.37;43.59
66486;BME280;53303;47.476;8.084;2022-07-24T11:57:31;96659.75;;;23.30;43.59
66486;BME280;53303;47.476;8.084;2022-07-24T11:59:57;96660.28;;;23.40;43.69
66486;BME280;53303;47.476;8.084;2022-07-24T12:02:26;96658.78;;;23.33;43.65
66486;BME280;53303;47.476;8.084;2022-07-24T12:04:52;96654.97;;;23.42;43.52
66486;BME280;53303;47.476;8.084;2022-07-24T12:07:21;96644.31;;;23.35;43.28
66486;BME280;53303;47.476;8.084;2022-07-24T12:09:54;96650.44;;;23.45;43.38
66486;BME280;53303;47.476;8.084;2022-07-24T12:12:30;96651.19;;;23.45;43.37
66486;BME280;53303;47.476;8.084;2022-07-24T12:15:12;96632.44;;;23.40;43.38
66486;BME280;53303;47.476;8.084;2022-07-24T12:18:01;96637.50;;;23.42;43.40
66486;BME280;53303;47.476;8.084;2022-07-24T12:20:41;96636.03;;;23.46;43.43
66486;BME280;53303;47.476;8.084;2022-07-24T12:23:11;96633.00;;;23.50;43.29
66486;BME280;53303;47.476;8.084;2022-07-24T12:25:38;96619.81;;;23.45;43.33
66486;BME280;53303;47.476;8.084;2022-07-24T12:28:09;96629.22;;;23.53;43.26
66486;BME280;53303;47.476;8.084;2022-07-24T12:30:37;96622.84;;;23.47;43.10
66486;BME280;53303;47.476;8.084;2022-07-24T12:33:09;96619.31;;;23.52;43.12
66486;BME280;53303;47.476;8.084;2022-07-24T12:38:36;96615.00;;;23.51;43.33
66486;BME280;53303;47.476;8.084;2022-07-24T12:43:31;96609.97;;;23.55;43.07
66486;BME280;53303;47.476;8.084;2022-07-24T12:46:07;96596.28;;;23.51;43.06
66486;BME280;53303;47.476;8.084;2022-07-24T12:48:36;96608.94;;;23.58;42.99
66486;BME280;53303;47.476;8.084;2022-07-24T12:53:28;96601.88;;;23.57;43.17
66486;BME280;53303;47.476;8.084;2022-07-24T12:58:29;96589.44;;;23.58;43.16
66486;BME280;53303;47.476;8.084;2022-07-24T13:00:59;96591.72;;;23.60;43.08
66486;BME280;53303;47.476;8.084;2022-07-24T13:03:28;96589.19;;;23.62;42.99
66486;BME280;53303;47.476;8.084;2022-07-24T13:05:58;96578.03;;;23.56;43.30
66486;BME280;53303;47.476;8.084;2022-07-24T13:08:24;96574.00;;;23.57;42.93
66486;BME280;53303;47.476;8.084;2022-07-24T13:10:49;96585.91;;;23.63;43.02
66486;BME280;53303;47.476;8.084;2022-07-24T13:13:15;96572.47;;;23.62;43.04
66486;BME280;53303;47.476;8.084;2022-07-24T13:15:44;96566.16;;;23.67;43.01
66486;BME280;53303;47.476;8.084;2022-07-24T13:18:12;96572.50;;;23.73;43.00
66486;BME280;53303;47.476;8.084;2022-07-24T13:20:38;96551.72;;;23.63;42.78
66486;BME280;53303;47.476;8.084;2022-07-24T13:23:03;96569.47;;;23.71;42.90
66486;BME280;53303;47.476;8.084;2022-07-24T13:25:29;96564.16;;;23.73;42.96
66486;BME280;53303;47.476;8.084;2022-07-24T13:27:54;96546.41;;;23.65;42.85
66486;BME280;53303;47.476;8.084;2022-07-24T13:30:20;96551.22;;;23.70;42.68
66486;BME280;53303;47.476;8.084;2022-07-24T13:32:45;96553.50;;;23.71;42.76
66486;BME280;53303;47.476;8.084;2022-07-24T13:35:10;96537.03;;;23.68;42.84
66486;BME280;53303;47.476;8.084;2022-07-24T13:37:36;96536.53;;;23.69;42.76
66486;BME280;53303;47.476;8.084;2022-07-24T13:40:02;96533.75;;;23.69;42.46
66486;BME280;53303;47.476;8.084;2022-07-24T13:42:30;96535.78;;;23.74;42.50
66486;BME280;53303;47.476;8.084;2022-07-24T13:44:56;96533.25;;;23.76;42.58
66486;BME280;53303;47.476;8.084;2022-07-24T13:47:24;96529.69;;;23.76;42.66
66486;BME280;53303;47.476;8.084;2022-07-24T13:49:54;96531.22;;;23.77;42.48
66486;BME280;53303;47.476;8.084;2022-07-24T13:52:19;96529.44;;;23.80;42.53
66486;BME280;53303;47.476;8.084;2022-07-24T13:54:50;96510.44;;;23.67;42.51